Terminal Aerodrome Forecast
Issued by NWS Tulsa, OK

Home | Current Version | Previous Version | Text Only | Print | Product List | Glossary On
Versions: 1 2 3 4 5 6 7 8 9 10 11 12 13 14 15
310
FTUS44 KTSA 252323
TAFTUL
TAF
KTUL 252323Z 2600/2624 17019G26KT P6SM BKN250
     FM260200 17010KT P6SM SCT250
     FM261500 21010KT P6SM BKN025
     FM261900 VRB05KT P6SM BKN040=

USA.gov is the U.S. government's official web portal to all federal, state and local government web resources and services.